createdAt,value
2022-11-03T00:02:59.125Z,100.00
2022-11-03T00:08:28.749Z,100.00
2022-11-03T00:13:58.230Z,100.00
2022-11-03T00:19:24.177Z,100.00
2022-11-03T00:24:51.266Z,100.00
2022-11-03T00:30:20.465Z,100.00
2022-11-03T00:35:46.697Z,100.00
2022-11-03T00:41:11.046Z,100.00
2022-11-03T00:46:40.364Z,100.00
2022-11-03T00:52:05.587Z,100.00
2022-11-03T00:57:29.933Z,100.00
2022-11-03T01:02:54.665Z,100.00
2022-11-03T01:08:26.620Z,100.00
2022-11-03T01:13:56.718Z,100.00
2022-11-03T01:19:20.852Z,100.00
2022-11-03T01:24:46.029Z,100.00
2022-11-03T01:30:10.232Z,100.00
2022-11-03T01:35:35.232Z,100.00
2022-11-03T01:41:04.863Z,100.00
2022-11-03T01:46:30.363Z,100.00
2022-11-03T01:51:58.077Z,100.00
2022-11-03T01:57:28.381Z,100.00
2022-11-03T02:02:57.634Z,100.00
2022-11-03T02:08:30.135Z,100.00
2022-11-03T02:14:00.675Z,100.00
2022-11-03T02:19:36.861Z,100.00
2022-11-03T02:25:16.823Z,100.00
2022-11-03T02:30:46.419Z,100.00
2022-11-03T02:36:16.818Z,100.00
2022-11-03T02:41:43.011Z,100.00
2022-11-03T02:47:11.039Z,100.00
2022-11-03T02:52:38.948Z,100.00
2022-11-03T02:58:12.871Z,100.00
2022-11-03T03:03:43.386Z,100.00
2022-11-03T03:09:14.125Z,100.00
2022-11-03T03:14:41.854Z,100.00
2022-11-03T03:20:15.723Z,100.00
2022-11-03T03:25:44.471Z,100.00
2022-11-03T03:31:12.104Z,100.00
2022-11-03T03:36:42.050Z,100.00
2022-11-03T03:42:10.359Z,100.00
2022-11-03T03:47:37.008Z,100.00
2022-11-03T03:53:04.176Z,100.00
2022-11-03T03:58:29.300Z,100.00
2022-11-03T04:03:53.405Z,100.00
2022-11-03T04:09:18.925Z,100.00
2022-11-03T04:15:00.568Z,100.00
2022-11-03T04:20:45.324Z,100.00
2022-11-03T04:26:15.202Z,100.00
2022-11-03T04:31:38.967Z,100.00
2022-11-03T04:37:02.940Z,100.00
2022-11-03T04:42:33.477Z,100.00
2022-11-03T04:48:00.844Z,100.00
2022-11-03T04:53:31.597Z,100.00
2022-11-03T04:58:59.508Z,100.00
2022-11-03T05:04:24.153Z,100.00
2022-11-03T05:09:48.402Z,100.00
2022-11-03T05:15:31.279Z,100.00
2022-11-03T05:21:03.907Z,100.00
2022-11-03T05:26:34.043Z,100.00
2022-11-03T05:32:01.093Z,100.00
2022-11-03T05:37:28.123Z,100.00
2022-11-03T05:42:54.814Z,100.00
2022-11-03T05:48:30.884Z,100.00
2022-11-03T05:53:59.045Z,100.00
2022-11-03T05:59:28.098Z,100.00
2022-11-03T06:04:53.617Z,100.00
2022-11-03T06:10:25.054Z,100.00
2022-11-03T06:15:52.108Z,100.00
2022-11-03T06:21:23.546Z,100.00
2022-11-03T06:26:50.926Z,100.00
2022-11-03T06:32:14.951Z,100.00
2022-11-03T06:37:40.352Z,100.00
2022-11-03T06:43:17.886Z,100.00
2022-11-03T06:48:42.589Z,100.00
2022-11-03T06:54:12.484Z,100.00
2022-11-03T06:59:41.708Z,100.00
2022-11-03T07:05:21.792Z,95.42
2022-11-03T07:10:59.244Z,94.43
2022-11-03T07:16:31.319Z,94.46
2022-11-03T07:22:02.157Z,96.99
2022-11-03T07:27:37.057Z,100.00
2022-11-03T07:33:15.492Z,100.00
2022-11-03T07:38:46.106Z,100.00
2022-11-03T07:44:21.132Z,100.00
2022-11-03T07:49:50.564Z,98.29
2022-11-03T07:55:19.832Z,97.83
2022-11-03T08:00:49.980Z,95.78
2022-11-03T08:06:20.108Z,92.81
2022-11-03T08:11:49.612Z,89.99
2022-11-03T08:17:20.000Z,92.00
2022-11-03T08:23:05.024Z,67.93
2022-11-03T08:28:38.699Z,58.61
2022-11-03T08:34:09.012Z,59.33
2022-11-03T08:39:38.258Z,61.31
2022-11-03T08:45:08.825Z,67.20
2022-11-03T08:50:40.644Z,73.88
2022-11-03T08:56:12.267Z,75.77
2022-11-03T09:01:42.519Z,77.79
2022-11-03T09:07:12.797Z,82.36
2022-11-03T09:12:41.577Z,85.66
2022-11-03T09:18:10.978Z,86.81
2022-11-03T09:23:41.987Z,88.70
2022-11-03T09:29:11.809Z,89.21
2022-11-03T09:34:40.379Z,85.78
2022-11-03T09:40:13.172Z,81.53
2022-11-03T09:45:42.181Z,81.97
2022-11-03T09:51:15.308Z,78.65
2022-11-03T09:56:47.229Z,73.57
2022-11-03T10:02:22.914Z,66.39
2022-11-03T10:13:30.401Z,62.75
2022-11-03T10:19:01.196Z,63.10
2022-11-03T10:24:30.094Z,61.24
2022-11-03T10:30:09.516Z,60.39
2022-11-03T10:35:38.239Z,60.49
2022-11-03T10:41:15.460Z,62.09
2022-11-03T10:46:57.900Z,63.38
2022-11-03T10:52:29.858Z,64.25
2022-11-03T10:57:59.873Z,68.39
2022-11-03T11:03:30.715Z,68.31
2022-11-03T14:40:30.827Z,100.00
2022-11-03T14:45:59.899Z,100.00
2022-11-03T14:51:28.796Z,100.00
2022-11-03T14:56:59.280Z,100.00
2022-11-03T15:02:31.579Z,100.00
2022-11-03T15:08:00.600Z,100.00
2022-11-03T15:13:31.290Z,100.00
2022-11-03T15:19:03.626Z,100.00
2022-11-03T15:30:22.987Z,100.00
2022-11-03T15:35:51.935Z,100.00
2022-11-03T15:41:22.091Z,100.00
2022-11-03T15:46:56.170Z,100.00
2022-11-03T15:52:24.812Z,100.00
2022-11-03T15:57:53.862Z,100.00
2022-11-03T16:03:24.372Z,100.00
2022-11-03T16:08:53.526Z,100.00
2022-11-03T16:14:22.861Z,100.00
2022-11-03T16:19:53.102Z,100.00
2022-11-03T16:25:21.669Z,100.00
2022-11-03T16:30:54.232Z,100.00
2022-11-03T16:36:25.547Z,100.00
2022-11-03T16:41:55.809Z,100.00
2022-11-03T16:47:27.043Z,100.00
2022-11-03T16:52:58.710Z,100.00
2022-11-03T16:58:30.169Z,100.00
2022-11-03T17:03:58.962Z,100.00
2022-11-03T17:09:30.672Z,100.00
2022-11-03T17:15:00.294Z,100.00
2022-11-03T17:20:29.635Z,100.00
2022-11-03T17:26:02.547Z,100.00
2022-11-03T17:31:33.511Z,100.00
2022-11-03T17:37:02.943Z,100.00
2022-11-03T17:42:33.792Z,100.00
2022-11-03T17:48:04.014Z,100.00
2022-11-03T17:53:35.078Z,100.00
2022-11-03T17:59:08.536Z,100.00
2022-11-03T18:04:37.792Z,100.00
2022-11-03T18:10:09.951Z,100.00
2022-11-03T18:15:44.075Z,100.00
2022-11-03T18:21:15.919Z,100.00
2022-11-03T18:26:45.176Z,100.00
2022-11-03T18:32:18.286Z,100.00
2022-11-03T18:37:48.240Z,100.00
2022-11-03T18:43:21.011Z,100.00
2022-11-03T18:48:51.277Z,100.00
2022-11-03T18:54:23.322Z,100.00
2022-11-03T18:59:53.486Z,100.00
2022-11-03T19:05:24.553Z,100.00
2022-11-03T19:10:54.539Z,100.00
2022-11-03T19:16:26.959Z,100.00
2022-11-03T19:21:56.911Z,100.00
2022-11-03T19:27:28.793Z,100.00
2022-11-03T19:32:59.468Z,100.00
2022-11-03T19:38:29.759Z,100.00
2022-11-03T19:43:58.603Z,100.00
2022-11-03T19:49:27.703Z,100.00
2022-11-03T19:54:59.232Z,100.00
2022-11-03T20:00:23.404Z,100.00
2022-11-03T20:05:50.030Z,100.00
2022-11-03T20:11:23.527Z,100.00
2022-11-03T20:16:47.688Z,100.00
2022-11-03T20:22:17.030Z,100.00
2022-11-03T20:27:47.203Z,100.00
2022-11-03T20:33:16.066Z,100.00
2022-11-03T20:38:39.703Z,100.00
2022-11-03T22:41:20.489Z,100.00
2022-11-03T22:46:50.528Z,100.00
2022-11-03T22:52:18.882Z,100.00
2022-11-03T22:57:49.467Z,100.00
2022-11-03T23:03:18.402Z,100.00
2022-11-03T23:08:44.812Z,100.00
2022-11-03T23:14:14.541Z,100.00
2022-11-03T23:20:09.821Z,100.00
2022-11-03T23:25:40.309Z,100.00
2022-11-03T23:31:07.278Z,100.00
2022-11-03T23:36:36.394Z,100.00
2022-11-03T23:42:00.627Z,100.00
2022-11-03T23:47:44.531Z,100.00
2022-11-03T23:53:13.518Z,100.00
2022-11-03T23:58:40.501Z,100.00
